Tuesday, June 28, 2016
20:30 UTC
  |  Log In   |  Register Free
Airport Search:

West Houston Airport
(KIWS)

West Houston Airport Diagram
No Airport Diagram Available

FAA data valid effective May 26 2016 - Jul 21 2016 (unless otherwise noted).

 
 
 
 
 
 
 
 
 
 
 
 
 
 
Summary: West Houston (IWS)

Weather Summary


METAR for KIWS is not available. Closest METAR is for KIAH 19.9 nm SW
KIAH  (19.9 nm SW)   (most recent observation was updated at 28:19 UTC)
281953Z 24006KT 7SM -TSRA SCT040CB BKN110 BKN250 25/22 A3002 RMK AO2 SLP165 FRQ LTGICCCCG VC SE-W TS VC SE-W MOVG S P0019 T02500222

KAXH  (21.3 nm NW)   (most recent observation was updated at 28:20 UTC)
282015Z AUTO 03014G17KT 010V070 10SM VCTS OVC044 27/23 A2999 RMK AO2 LTG DSNT ALQS T02650229

TAF for KIWS is not available.
KSGR  (11.8 nm NW)   (most recent observation was updatred at 28:17 UTC)
281720Z 2818/2918 VRB04KT P6SM VCSH SCT035 TEMPO 2819/2823 3SM TSRA BR BKN025CB FM290200 VRB04KT P6SM BKN250 FM291700 02007KT P6SM SCT045


KIAH  (19.9 nm SW)   (most recent observation was updatred at 28:20 UTC)
AMD 282011Z 2820/2924 VRB06KT P6SM VCTS SCT035CB SCT050 BKN250 TEMPO 2820/2822 VRB12KT 5SM TSRA SCT025CB BKN035 BKN050 FM290200 01004KT P6SM BKN250 FM291700 06007KT P6SM SCT045 FM292100 09009KT P6SM VCSH SCT050


KHOU  (23.0 nm NW)   (most recent observation was updatred at 28:19 UTC)
AMD 281950Z 2820/2918 35005KT P6SM VCTS SCT035CB SCT050 TEMPO 2820/2823 VRB25G40KT 1/2SM +TSRA FG BKN025CB BKN035 BKN050 FM290200 02005KT P6SM BKN250 FM291700 02007KT P6SM SCT045
GlobalAir.com is loading additional information.
Current weather conditions are not available for IWS.

The nearest NOAA weather station is at SGR (10.3 nm SE from IWS)
 Current Weather at SGR
90.0 F° (32.2 C°)
Mostly Cloudy
Southwest winds at 5.8 mph
Pressure:
29.98 in
Humidity:
58%
Wind:
Southwest at 5.8 MPH (5 KT)
Dew Point:
73.0 F° (22.8 C°)
Visibility:
10.00 mi
IWS NOAA Radar

Runway Summary

ID Dimensions Surface Instrument Approaches
15/33 75 ft x 3953 ft Asphalt, Good Condition RNAV (GPS) RWY 15
RNAV (GPS) RWY 15
RNAV (GPS) RWY 33
VOR-D

Communications Summary


CTAF123.05
UNICOM123.05
ATISN/A
HOUSTON APPROACH123.8
HOUSTON DEPARTURE123.8
CLEARANCE DELIVERY121.15

Closest Alternate Airports with Instrument Procedures

KEYQ - Weiser Air Park - 8.3 nm NE from IWS

O07 - Westheimer Air Park - 9.8 nm SW from IWS

O07 - Westheimer Air Park - 9.8 nm SW from IWS

O07 - Westheimer Air Park - 9.8 nm SW from IWS

O07 - Westheimer Air Park - 9.8 nm SW from IWS

KSGR - Sugar Land Regional - 13.6 nm SE from IWS

40XA - Lone Star - 14.6 nm SE from IWS

KT51 - Dan Jones International - 15.5 nm NE from IWS

KDWH - David Wayne Hooks Memorial - 18.3 nm NE from IWS

KIAH - George Bush Intercontinental/Houston - 22.9 nm NE from IWS

Find All Airport Services Find A Hotel Find A Rental Car Find A Golf Course Find A Restaurant $100 Hamburger



FBO's on the Field
FBO Company Facility Photos Services Transportation Aviation Fuel Prices: Prices include tax
Catering Weather Repair Courtesy Rental Type 100LL JetA JetA+ MOGAS 8087
 
West Houston Airport

Currently rated 2.5 by 2 people
FS:Independent
Last Updated: Jun-27
Login to update fuel prices
SS:
Contact West Houston AirportMore FBO Information
 
Add another FBO Facility Photos Catering Weather Repair Courtesy Rental Type 100LL JetA JetA+ MOGAS 8087
Services Transportation Aviation Fuel Prices: Prices include tax


model-print
model-print
model-print
model-print